Time;durP1;ratioP1;P1;durP2;ratioP2;P2;SDS_P1;SDS_P2;PMS_P1;PMS_P2;Temp;Humidity;BMP_temperature;BMP_pressure;BME280_temperature;BME280_humidity;BME280_pressure;Samples;Min_cycle;Max_cycle;Signal;HPM_P1;HPM_P2
2022/07/25 00:01:49;;;;;;;12.98;8.88;;;;;;;19.12;73.40;98349.31;5053293;28;20091;-71
2022/07/25 00:04:15;;;;;;;10.40;8.23;;;;;;;19.10;73.25;98354.22;5054061;28;20040;-71
2022/07/25 00:06:41;;;;;;;14.27;8.60;;;;;;;19.03;73.74;98343.97;5054401;28;20450;-71
2022/07/25 00:09:08;;;;;;;15.02;9.43;;;;;;;18.97;73.93;98353.28;5053769;28;20041;-71
2022/07/25 00:11:33;;;;;;;14.93;9.02;;;;;;;18.94;73.63;98347.75;5054223;28;20510;-70
2022/07/25 00:13:59;;;;;;;13.68;8.88;;;;;;;18.93;73.79;98338.13;5052634;28;20090;-71
2022/07/25 00:16:25;;;;;;;16.70;8.95;;;;;;;18.89;74.01;98329.13;5052812;28;20043;-70
2022/07/25 00:18:50;;;;;;;12.07;9.07;;;;;;;18.87;74.16;98334.81;5069448;28;20049;-71
2022/07/25 00:21:16;;;;;;;10.75;8.23;;;;;;;18.86;74.15;98327.88;5052764;28;20098;-71
2022/07/25 00:23:42;;;;;;;11.77;9.40;;;;;;;18.86;74.53;98330.56;5053316;28;20047;-71
2022/07/25 00:26:07;;;;;;;10.35;8.40;;;;;;;18.83;74.39;98331.97;5053940;28;20045;-71
2022/07/25 00:28:33;;;;;;;12.70;8.43;;;;;;;18.83;74.56;98323.13;5053775;28;20045;-71
2022/07/25 00:30:59;;;;;;;9.65;7.90;;;;;;;18.82;74.16;98324.22;5053962;28;20504;-70
2022/07/25 00:33:24;;;;;;;16.85;9.07;;;;;;;18.83;74.55;98323.91;5052471;28;20041;-71
2022/07/25 00:35:50;;;;;;;15.23;9.10;;;;;;;18.81;74.56;98330.72;5054164;28;20521;-70
2022/07/25 00:38:15;;;;;;;13.07;8.93;;;;;;;18.78;74.64;98325.97;5053115;28;20045;-70
2022/07/25 00:40:41;;;;;;;18.65;9.15;;;;;;;18.74;74.62;98328.50;5052544;28;20135;-71
2022/07/25 00:43:07;;;;;;;11.27;8.85;;;;;;;18.70;74.82;98327.53;5053739;28;20052;-72
2022/07/25 00:45:33;;;;;;;12.80;8.73;;;;;;;18.68;74.73;98323.56;5069177;28;20498;-71
2022/07/25 00:47:58;;;;;;;12.50;9.10;;;;;;;18.66;74.73;98315.06;5053387;28;20510;-71
2022/07/25 00:50:24;;;;;;;12.13;8.10;;;;;;;18.66;75.36;98318.53;5052263;28;20494;-70
2022/07/25 00:52:51;;;;;;;9.70;7.63;;;;;;;18.65;74.94;98321.50;5051605;28;20053;-72
2022/07/25 00:55:17;;;;;;;11.52;8.20;;;;;;;18.66;75.24;98328.47;5068841;28;20140;-71
2022/07/25 00:57:42;;;;;;;15.23;8.77;;;;;;;18.66;75.07;98323.13;5035834;28;20151;-70
2022/07/25 01:00:12;;;;;;;10.90;7.55;;;;;;;18.64;75.14;98325.31;5053361;28;20433;-70
2022/07/25 01:02:37;;;;;;;9.93;6.57;;;;;;;18.63;75.50;98329.13;5051584;28;20043;-70
2022/07/25 01:05:05;;;;;;;9.25;7.85;;;;;;;18.61;75.43;98332.88;5053533;28;20037;-69
2022/07/25 01:07:31;;;;;;;8.75;7.22;;;;;;;18.62;75.75;98331.00;5052987;28;20060;-70
2022/07/25 01:09:56;;;;;;;9.10;7.13;;;;;;;18.66;75.43;98331.94;5051847;28;20463;-69
2022/07/25 01:12:22;;;;;;;10.05;7.10;;;;;;;18.65;75.30;98327.69;5035468;28;20037;-70
2022/07/25 01:14:48;;;;;;;8.65;7.15;;;;;;;18.65;75.40;98327.69;5052988;28;20063;-70
2022/07/25 01:17:13;;;;;;;10.32;6.60;;;;;;;18.66;75.22;98326.59;5051257;28;20083;-70
2022/07/25 01:19:39;;;;;;;8.07;6.43;;;;;;;18.67;75.55;98322.00;5051853;28;20050;-70
2022/07/25 01:22:05;;;;;;;8.75;6.85;;;;;;;18.67;75.46;98330.06;5051432;28;20404;-70
2022/07/25 01:24:32;;;;;;;12.85;7.97;;;;;;;18.67;75.64;98330.84;5051503;28;20048;-70
2022/07/25 01:26:58;;;;;;;9.73;7.40;;;;;;;18.68;75.80;98331.63;5051934;28;20056;-70
2022/07/25 01:29:24;;;;;;;14.40;7.07;;;;;;;18.75;75.54;98332.75;5051415;28;20409;-70
2022/07/25 01:31:49;;;;;;;16.17;7.95;;;;;;;18.81;75.18;98338.75;5068533;28;20052;-70
2022/07/25 01:34:15;;;;;;;13.90;8.05;;;;;;;18.88;74.91;98341.75;5050898;28;20044;-71
2022/07/25 01:36:41;;;;;;;12.25;7.53;;;;;;;18.95;74.72;98343.97;5052708;28;20107;-71
2022/07/25 01:39:06;;;;;;;12.65;8.23;;;;;;;18.93;74.43;98322.00;5052764;28;20586;-71
2022/07/25 01:41:32;;;;;;;9.05;7.25;;;;;;;19.19;74.05;98346.16;5053194;28;20414;-71
2022/07/25 01:43:58;;;;;;;8.18;6.88;;;;;;;19.34;73.28;98347.53;5052843;28;20105;-71
2022/07/25 01:46:23;;;;;;;8.45;7.22;;;;;;;19.52;72.45;98346.38;5051668;28;20525;-69
2022/07/25 01:48:49;;;;;;;7.68;6.90;;;;;;;19.75;71.89;98346.94;5052178;28;20087;-69
2022/07/25 01:51:15;;;;;;;9.82;7.07;;;;;;;19.92;70.71;98340.72;5017945;28;20056;-70
2022/07/25 01:53:40;;;;;;;7.63;6.72;;;;;;;20.10;70.00;98342.19;5051036;28;20150;-70
2022/07/25 01:56:07;;;;;;;8.10;6.75;;;;;;;20.29;69.29;98344.44;5050758;28;20090;-70
2022/07/25 01:58:33;;;;;;;8.13;6.60;;;;;;;20.53;68.36;98348.41;5052134;28;20048;-69
2022/07/25 02:00:58;;;;;;;8.15;6.53;;;;;;;20.75;67.60;98340.00;5051043;28;20131;-69
2022/07/25 02:03:30;;;;;;;8.20;6.78;;;;;;;21.00;66.68;98340.09;5052081;28;20040;-69
2022/07/25 02:05:58;;;;;;;7.45;6.45;;;;;;;21.20;65.87;98339.25;5051003;28;20040;-70
2022/07/25 02:08:24;;;;;;;7.72;6.53;;;;;;;21.45;64.78;98339.38;5067315;28;20049;-70
2022/07/25 02:10:50;;;;;;;8.55;6.20;;;;;;;21.62;64.33;98328.38;5050746;28;20051;-70
2022/07/25 02:13:16;;;;;;;12.23;6.28;;;;;;;21.83;63.64;98330.97;5049650;28;20435;-69
2022/07/25 02:16:02;;;;;;;7.78;6.15;;;;;;;22.12;62.83;98337.22;5051067;28;20083;-70
2022/07/25 02:18:28;;;;;;;8.07;6.18;;;;;;;22.36;62.23;98333.75;5051979;28;20076;-70
2022/07/25 02:20:53;;;;;;;9.30;6.10;;;;;;;22.62;60.70;98327.94;5047347;28;20052;-69
2022/07/25 02:23:19;;;;;;;10.77;6.50;;;;;;;22.88;59.80;98324.78;5031710;28;20037;-70
2022/07/25 02:25:45;;;;;;;6.55;5.80;;;;;;;23.15;59.34;98333.25;5030505;28;20118;-70
2022/07/25 02:28:10;;;;;;;10.50;6.00;;;;;;;23.36;58.40;98336.53;5036121;28;20051;-70
2022/07/25 02:30:37;;;;;;;6.78;5.93;;;;;;;23.61;57.78;98331.72;5050652;28;20041;-70
2022/07/25 02:33:02;;;;;;;8.50;6.03;;;;;;;23.78;56.93;98328.69;5050043;28;20502;-71
2022/07/25 02:35:28;;;;;;;8.73;6.10;;;;;;;23.92;56.50;98332.88;5051938;28;20041;-70
2022/07/25 02:37:54;;;;;;;9.52;6.80;;;;;;;24.06;56.25;98335.91;5033135;28;20052;-70
2022/07/25 02:40:19;;;;;;;9.48;6.63;;;;;;;24.21;55.25;98337.81;5051779;28;20124;-71
2022/07/25 02:42:45;;;;;;;7.95;7.13;;;;;;;24.32;55.34;98342.66;5051345;28;20048;-71
2022/07/25 02:45:11;;;;;;;10.50;6.35;;;;;;;24.40;54.96;98336.25;5049737;28;20067;-71
2022/07/25 02:47:37;;;;;;;9.80;6.63;;;;;;;24.64;54.30;98344.13;5049516;28;20033;-71
2022/07/25 02:50:03;;;;;;;12.52;7.18;;;;;;;24.83;53.77;98329.81;5051250;28;20075;-71
2022/07/25 02:52:29;;;;;;;13.38;7.18;;;;;;;24.99;53.06;98327.00;5049366;28;20041;-71
2022/07/25 02:54:54;;;;;;;8.40;7.10;;;;;;;25.13;52.54;98330.03;5051446;28;20559;-72
2022/07/25 02:57:20;;;;;;;11.10;6.95;;;;;;;25.35;51.97;98335.81;5049605;28;20159;-72
2022/07/25 02:59:46;;;;;;;7.60;6.78;;;;;;;25.50;51.92;98334.13;5051233;28;20045;-71
2022/07/25 03:02:11;;;;;;;12.10;6.43;;;;;;;25.65;51.51;98330.53;5050803;28;20045;-70
2022/07/25 03:04:37;;;;;;;8.05;6.82;;;;;;;25.84;50.81;98326.97;5066383;28;20116;-71
2022/07/25 03:07:03;;;;;;;8.82;5.97;;;;;;;25.98;50.51;98338.03;5051079;28;20045;-71
2022/07/25 03:09:28;;;;;;;9.00;6.45;;;;;;;26.10;50.25;98334.34;5050789;28;20154;-70
2022/07/25 03:11:54;;;;;;;8.85;6.60;;;;;;;26.24;49.84;98337.25;5049828;28;20045;-72
2022/07/25 03:14:20;;;;;;;10.40;6.13;;;;;;;26.39;49.48;98335.50;5049880;28;20071;-70
2022/07/25 03:16:45;;;;;;;8.20;6.82;;;;;;;26.53;49.01;98337.63;5051082;28;20047;-71
2022/07/25 03:19:12;;;;;;;9.25;7.25;;;;;;;26.70;48.78;98328.16;5050456;28;20037;-71
2022/07/25 03:21:38;;;;;;;7.57;6.28;;;;;;;26.81;48.25;98331.78;5050149;28;20083;-71
2022/07/25 03:24:04;;;;;;;7.57;6.35;;;;;;;26.89;48.28;98335.38;5049533;28;20127;-72
2022/07/25 03:26:29;;;;;;;9.18;6.85;;;;;;;26.95;48.39;98333.88;5053943;28;20036;-71
2022/07/25 03:28:55;;;;;;;7.22;6.40;;;;;;;27.02;47.95;98335.88;5053697;28;20087;-71
2022/07/25 03:31:21;;;;;;;8.63;6.78;;;;;;;27.00;48.17;98338.19;5050452;28;20553;-71
2022/07/25 03:33:46;;;;;;;6.60;6.00;;;;;;;27.01;48.02;98337.84;5054891;28;20049;-69
2022/07/25 03:36:12;;;;;;;7.43;6.72;;;;;;;27.08;47.98;98328.97;5061719;28;20041;-70
2022/07/25 03:38:38;;;;;;;9.43;6.60;;;;;;;27.18;47.77;98334.53;5034697;28;20058;-70
2022/07/25 03:41:04;;;;;;;9.15;7.10;;;;;;;27.23;47.53;98333.41;5035213;28;20041;-69
2022/07/25 03:43:30;;;;;;;17.15;10.10;;;;;;;27.29;47.67;98331.13;5033289;28;20099;-70
2022/07/25 03:45:56;;;;;;;7.60;6.65;;;;;;;27.35;47.30;98337.78;5017249;28;20121;-70
2022/07/25 03:48:22;;;;;;;9.35;7.63;;;;;;;27.22;47.94;98337.28;5042611;28;20145;-70
2022/07/25 03:50:48;;;;;;;13.23;7.10;;;;;;;27.20;48.18;98336.88;5053632;28;20518;-70
2022/07/25 03:53:13;;;;;;;9.50;6.60;;;;;;;27.29;47.85;98336.56;5053264;28;20156;-70
2022/07/25 03:55:39;;;;;;;8.45;7.10;;;;;;;27.24;48.22;98337.72;5054959;28;20106;-71
2022/07/25 03:58:05;;;;;;;8.73;7.18;;;;;;;27.34;47.94;98338.97;5054780;28;20132;-70
2022/07/25 04:00:31;;;;;;;9.73;7.35;;;;;;;27.45;47.49;98336.34;5053668;28;20064;-71
2022/07/25 04:02:57;;;;;;;9.63;7.35;;;;;;;27.38;47.78;98332.41;5054482;28;20080;-70
2022/07/25 04:05:23;;;;;;;9.90;7.13;;;;;;;27.32;48.03;98338.53;5053183;28;20065;-69
2022/07/25 04:07:49;;;;;;;15.20;7.18;;;;;;;27.27;48.63;98334.25;5054333;28;20442;-69
2022/07/25 04:10:15;;;;;;;8.70;6.57;;;;;;;27.43;48.04;98344.09;5054339;28;20039;-71
2022/07/25 04:12:40;;;;;;;9.05;6.60;;;;;;;27.56;47.69;98340.72;5054576;28;20127;-71
2022/07/25 04:15:07;;;;;;;8.13;7.32;;;;;;;27.61;47.62;98345.81;5054410;28;20051;-70
2022/07/25 04:17:32;;;;;;;9.48;7.80;;;;;;;27.66;47.80;98336.53;5052261;28;20037;-70
2022/07/25 04:19:58;;;;;;;9.32;7.00;;;;;;;27.83;47.25;98335.13;5034765;28;20125;-70
2022/07/25 04:22:24;;;;;;;9.13;6.90;;;;;;;28.00;47.08;98345.38;5034160;28;20051;-70
2022/07/25 04:24:49;;;;;;;10.82;6.43;;;;;;;28.15;46.53;98345.44;5033985;28;20125;-71
2022/07/25 04:27:15;;;;;;;8.40;7.18;;;;;;;28.26;46.42;98346.28;5048048;28;20465;-70
2022/07/25 04:29:41;;;;;;;7.25;6.55;;;;;;;28.24;46.81;98340.47;5069359;28;20037;-70
2022/07/25 04:32:06;;;;;;;7.82;7.03;;;;;;;28.18;46.88;98348.22;5053997;28;20056;-71
2022/07/25 04:34:32;;;;;;;8.07;6.78;;;;;;;28.19;46.93;98332.63;5069495;28;20048;-72
2022/07/25 04:36:58;;;;;;;10.05;8.38;;;;;;;28.25;47.04;98329.16;5048393;28;20045;-71
2022/07/25 04:39:23;;;;;;;9.50;8.30;;;;;;;28.24;47.25;98326.84;5035492;28;20060;-73
2022/07/25 04:41:50;;;;;;;9.45;7.18;;;;;;;28.01;47.30;98332.53;5019550;28;20422;-71
2022/07/25 04:44:16;;;;;;;9.45;7.38;;;;;;;28.00;47.39;98339.94;5053584;28;20047;-72
2022/07/25 04:46:41;;;;;;;11.68;7.50;;;;;;;28.02;47.37;98336.81;5053760;28;20420;-72
2022/07/25 04:49:07;;;;;;;10.82;6.72;;;;;;;28.17;46.99;98332.22;5053623;28;20509;-72
2022/07/25 04:51:33;;;;;;;9.00;7.20;;;;;;;28.11;47.21;98334.53;5052419;28;20485;-75
2022/07/25 04:53:58;;;;;;;7.97;7.05;;;;;;;28.19;47.39;98332.63;5052513;28;20102;-74
2022/07/25 04:56:24;;;;;;;9.50;7.07;;;;;;;28.29;46.72;98335.41;5053205;28;20426;-74
2022/07/25 04:58:50;;;;;;;8.05;7.10;;;;;;;28.29;47.68;98340.84;5051967;28;20597;-72
2022/07/25 05:01:16;;;;;;;9.02;7.40;;;;;;;28.41;46.76;98333.53;5053495;28;20041;-71
2022/07/25 05:03:42;;;;;;;13.65;7.40;;;;;;;28.64;46.98;98334.03;5052928;28;20033;-73
2022/07/25 05:06:08;;;;;;;11.32;7.65;;;;;;;28.66;46.03;98326.28;5053046;28;20049;-70
2022/07/25 05:08:34;;;;;;;7.30;6.57;;;;;;;28.41;47.18;98317.16;5053319;28;20106;-70
2022/07/25 05:11:01;;;;;;;10.02;6.70;;;;;;;28.25;47.87;98323.72;5052276;28;20144;-74
2022/07/25 05:13:30;;;;;;;10.80;6.80;;;;;;;28.12;47.40;98322.50;5051849;28;20041;-73
2022/07/25 05:15:56;;;;;;;9.02;6.90;;;;;;;27.97;48.34;98321.63;5051656;28;20443;-75
2022/07/25 05:18:21;;;;;;;7.90;7.10;;;;;;;27.94;48.57;98327.03;5068773;28;20049;-73
2022/07/25 05:20:47;;;;;;;9.23;7.03;;;;;;;27.86;48.55;98334.38;5053459;28;20557;-74
2022/07/25 05:23:12;;;;;;;7.95;7.03;;;;;;;27.72;48.71;98324.13;5053071;28;20064;-75
2022/07/25 05:25:38;;;;;;;8.60;7.20;;;;;;;27.49;49.62;98324.31;5068145;28;20048;-73
2022/07/25 05:28:04;;;;;;;8.27;7.47;;;;;;;27.40;49.86;98324.63;5052289;28;20051;-75
2022/07/25 05:30:30;;;;;;;10.90;7.20;;;;;;;27.40;49.96;98321.13;5051545;28;20071;-74
2022/07/25 05:32:56;;;;;;;8.85;7.95;;;;;;;27.30;50.04;98319.88;5042355;28;20037;-74
2022/07/25 05:35:21;;;;;;;10.40;6.88;;;;;;;27.10;49.90;98322.00;5029820;28;20041;-76
2022/07/25 05:37:47;;;;;;;10.82;8.88;;;;;;;27.02;50.92;98328.50;5029254;28;20135;-73
2022/07/25 05:40:13;;;;;;;10.20;7.97;;;;;;;27.01;50.60;98321.50;5030121;28;20065;-75
2022/07/25 05:42:39;;;;;;;8.05;7.10;;;;;;;27.00;50.63;98322.66;5032163;28;20052;-73
2022/07/25 05:45:05;;;;;;;9.60;6.80;;;;;;;27.00;50.74;98325.38;5030916;28;20053;-74
2022/07/25 05:47:30;;;;;;;8.02;7.22;;;;;;;26.98;50.39;98327.69;5029431;28;20071;-72
2022/07/25 05:49:56;;;;;;;8.98;7.07;;;;;;;26.95;51.16;98329.22;5038442;28;20479;-72
2022/07/25 05:52:22;;;;;;;8.45;6.80;;;;;;;26.91;51.54;98331.13;5048589;28;20124;-73
2022/07/25 05:54:48;;;;;;;8.48;7.30;;;;;;;26.92;51.18;98331.91;5049296;28;20056;-71
2022/07/25 05:57:14;;;;;;;7.95;7.15;;;;;;;26.93;51.04;98328.81;5049284;28;20049;-71
2022/07/25 05:59:40;;;;;;;9.60;6.88;;;;;;;27.08;50.72;98326.25;5010515;28;20044;-70
2022/07/25 06:02:06;;;;;;;9.13;7.20;;;;;;;27.12;49.77;98327.84;5035590;28;21548;-65
2022/07/25 06:04:32;;;;;;;9.43;7.20;;;;;;;27.13;50.59;98321.25;5048244;28;20148;-64
2022/07/25 06:06:57;;;;;;;11.63;7.97;;;;;;;27.11;51.11;98322.78;5046009;28;20041;-64
2022/07/25 06:09:23;;;;;;;7.82;6.88;;;;;;;27.14;50.35;98325.53;5048980;28;20071;-65
2022/07/25 06:11:49;;;;;;;8.27;7.10;;;;;;;27.12;49.87;98318.88;5032692;28;20063;-63
2022/07/25 06:14:16;;;;;;;7.78;7.03;;;;;;;27.13;50.27;98318.53;5049581;28;20045;-65
2022/07/25 06:16:41;;;;;;;9.60;7.20;;;;;;;27.24;50.16;98309.69;5047848;28;20040;-67
2022/07/25 06:19:07;;;;;;;7.38;6.68;;;;;;;27.37;49.85;98314.50;5049096;28;20131;-66
2022/07/25 06:21:33;;;;;;;7.18;6.55;;;;;;;27.50;48.61;98316.94;5065919;28;20052;-65
2022/07/25 06:23:59;;;;;;;8.45;6.90;;;;;;;27.59;48.94;98318.19;5058926;28;20128;-65
2022/07/25 06:26:25;;;;;;;7.95;6.90;;;;;;;27.71;48.88;98319.84;5046757;28;20046;-66
2022/07/25 06:28:51;;;;;;;8.88;6.85;;;;;;;27.73;49.07;98324.91;5042539;28;20082;-65
2022/07/25 06:31:17;;;;;;;15.73;7.20;;;;;;;27.82;48.93;98326.16;5049518;28;20044;-70
2022/07/25 06:33:43;;;;;;;16.38;7.78;;;;;;;27.70;69.68;98326.44;5049962;28;20091;-59
2022/07/25 06:36:09;;;;;;;13.45;7.72;;;;;;;26.81;71.37;98320.91;5050748;28;20513;-61
2022/07/25 06:38:35;;;;;;;8.57;7.72;;;;;;;25.98;68.68;98319.03;5047944;28;20419;-61
2022/07/25 06:41:01;;;;;;;27.65;10.93;;;;;;;25.69;65.28;98320.50;5048597;28;20037;-58
2022/07/25 06:43:27;;;;;;;13.02;8.45;;;;;;;25.66;61.63;98323.16;5047828;28;20044;-61
2022/07/25 06:45:54;;;;;;;9.57;7.70;;;;;;;25.77;61.45;98310.56;5048443;28;20565;-61
2022/07/25 06:48:19;;;;;;;11.68;7.53;;;;;;;25.97;61.84;98311.25;5048213;28;20068;-60
2022/07/25 06:50:45;;;;;;;17.30;9.55;;;;;;;26.18;60.46;98316.22;5047852;28;20482;-60
2022/07/25 06:53:11;;;;;;;44.47;17.70;;;;;;;26.19;62.38;98323.22;5048847;28;20128;-62
2022/07/25 06:55:37;;;;;;;16.25;11.45;;;;;;;26.47;54.59;98320.06;5026121;28;20037;-62
2022/07/25 06:58:03;;;;;;;10.52;8.75;;;;;;;26.68;54.14;98320.38;5042022;28;20525;-68
2022/07/25 07:00:29;;;;;;;9.30;8.40;;;;;;;26.79;53.42;98311.56;5029034;28;20037;-68
2022/07/25 07:03:00;;;;;;;9.45;8.48;;;;;;;26.88;51.54;98315.53;5044384;28;20045;-66
2022/07/25 07:05:28;;;;;;;11.93;8.82;;;;;;;26.79;54.63;98308.84;5033084;28;20033;-70
2022/07/25 07:07:54;;;;;;;10.55;7.85;;;;;;;26.99;52.57;98312.16;5048612;28;20056;-63
2022/07/25 07:10:20;;;;;;;8.65;7.03;;;;;;;27.15;50.08;98323.63;5050631;28;20036;-64
2022/07/25 07:12:47;;;;;;;8.90;7.07;;;;;;;27.10;50.59;98313.84;5049715;28;20079;-65
2022/07/25 07:15:13;;;;;;;9.35;7.25;;;;;;;27.22;49.52;98323.69;5034084;28;20041;-67
2022/07/25 07:17:39;;;;;;;12.57;7.53;;;;;;;27.10;49.90;98318.50;5036020;28;20045;-65
2022/07/25 07:20:05;;;;;;;10.90;8.80;;;;;;;27.21;50.26;98324.84;5048716;28;20055;-62
2022/07/25 07:22:31;;;;;;;10.95;7.30;;;;;;;27.40;49.59;98312.97;5043167;28;20522;-67
2022/07/25 07:24:57;;;;;;;8.10;7.28;;;;;;;27.46;48.70;98319.63;5043140;28;20033;-66
2022/07/25 07:27:23;;;;;;;9.07;7.05;;;;;;;27.47;48.70;98321.19;5014575;28;20051;-69
2022/07/25 07:29:49;;;;;;;8.50;7.55;;;;;;;27.56;51.13;98318.94;5050333;28;20482;-70
2022/07/25 07:32:15;;;;;;;10.18;8.10;;;;;;;27.66;51.44;98316.69;5065978;28;20052;-70
2022/07/25 07:34:41;;;;;;;9.93;7.70;;;;;;;27.72;52.41;98332.28;5064869;28;20072;-66
2022/07/25 07:37:06;;;;;;;9.13;7.95;;;;;;;27.65;50.53;98324.06;5049783;28;20079;-68
2022/07/25 07:39:33;;;;;;;11.68;7.57;;;;;;;27.56;49.67;98321.69;5050220;28;20049;-71
2022/07/25 07:41:58;;;;;;;11.18;7.75;;;;;;;27.42;49.82;98318.06;5047754;28;20064;-65
2022/07/25 07:44:24;;;;;;;10.85;8.38;;;;;;;27.34;50.81;98323.41;5047884;28;20044;-65
2022/07/25 07:46:50;;;;;;;10.00;9.05;;;;;;;27.35;53.24;98319.53;5048848;28;20045;-64
2022/07/25 07:49:15;;;;;;;9.10;7.68;;;;;;;27.50;51.39;98325.09;5049061;28;20056;-65
2022/07/25 07:51:41;;;;;;;12.90;8.98;;;;;;;27.73;50.14;98327.63;5065785;28;20506;-65
2022/07/25 07:56:51;;;;;;;12.15;8.10;;;;;;;28.09;48.42;98320.53;5050395;28;20088;-66
2022/07/25 07:59:16;;;;;;;9.90;7.75;;;;;;;28.09;47.99;98320.53;5049315;28;20052;-66
2022/07/25 08:01:42;;;;;;;9.00;7.68;;;;;;;28.02;48.17;98318.50;5049403;28;20128;-67
2022/07/25 08:04:08;;;;;;;9.18;7.60;;;;;;;27.85;48.29;98317.25;5050370;28;20045;-66
2022/07/25 08:06:33;;;;;;;10.23;7.53;;;;;;;27.91;48.31;98316.88;5050386;28;20060;-66
2022/07/25 08:08:59;;;;;;;12.98;7.90;;;;;;;28.00;48.85;98315.41;5048740;28;20246;-65
2022/07/25 08:11:25;;;;;;;7.95;6.80;;;;;;;28.20;47.18;98317.84;5051301;28;20056;-64
2022/07/25 08:13:51;;;;;;;10.82;7.60;;;;;;;28.13;48.75;98326.00;5052841;28;20086;-64
2022/07/25 08:16:17;;;;;;;6.90;6.30;;;;;;;28.28;46.60;98322.94;5052161;28;20064;-63
2022/07/25 08:18:43;;;;;;;10.95;7.22;;;;;;;28.47;45.45;98321.13;5051835;28;20102;-63
2022/07/25 08:21:09;;;;;;;9.75;6.90;;;;;;;28.47;45.12;98313.75;5069284;28;20045;-61
2022/07/25 08:23:37;;;;;;;7.50;6.47;;;;;;;28.23;45.42;98315.13;5054039;28;20040;-60
2022/07/25 08:26:04;;;;;;;7.45;6.55;;;;;;;28.26;45.76;98327.22;5053800;28;20041;-65
2022/07/25 08:28:30;;;;;;;11.55;6.65;;;;;;;28.48;45.09;98325.41;5067501;28;20078;-62
2022/07/25 08:30:57;;;;;;;9.77;7.38;;;;;;;28.69;43.04;98316.53;5052818;28;20068;-62
2022/07/25 08:33:24;;;;;;;7.43;5.60;;;;;;;28.86;43.54;98324.00;5051517;28;20052;-62
2022/07/25 08:35:53;;;;;;;7.57;6.07;;;;;;;28.99;42.26;98327.91;5051213;28;20119;-62
2022/07/25 08:38:21;;;;;;;10.75;5.97;;;;;;;28.92;42.17;98327.13;5051253;28;20140;-62
2022/07/25 08:40:46;;;;;;;6.47;5.65;;;;;;;28.83;43.18;98322.06;5051486;28;20041;-64
2022/07/25 08:43:14;;;;;;;7.15;5.95;;;;;;;28.80;42.44;98331.00;5051037;28;20053;-62
2022/07/25 08:45:44;;;;;;;6.38;5.22;;;;;;;28.91;42.09;98331.00;5050237;28;20123;-62
2022/07/25 08:48:10;;;;;;;5.60;4.82;;;;;;;28.88;41.44;98331.78;5051526;28;20064;-61
2022/07/25 08:50:37;;;;;;;5.55;4.97;;;;;;;28.99;41.24;98332.59;5052161;28;20145;-61
2022/07/25 08:53:03;;;;;;;7.95;6.20;;;;;;;29.03;42.75;98343.53;5065816;28;20076;-62
2022/07/25 08:55:29;;;;;;;11.38;7.55;;;;;;;28.87;44.75;98336.47;5048790;28;20073;-68
2022/07/25 08:57:54;;;;;;;10.52;7.35;;;;;;;28.55;46.40;98328.16;5051316;28;20139;-68
2022/07/25 09:00:23;;;;;;;8.77;7.82;;;;;;;28.26;46.81;98338.13;5034238;28;20553;-69
2022/07/25 09:02:58;;;;;;;9.60;8.15;;;;;;;27.94;48.15;98341.41;5050771;28;20052;-68
2022/07/25 09:05:25;;;;;;;9.38;7.40;;;;;;;27.78;48.62;98341.69;5049601;28;20395;-68
2022/07/25 09:07:53;;;;;;;9.20;7.93;;;;;;;27.80;48.54;98336.66;5049934;28;20069;-67
2022/07/25 09:10:20;;;;;;;9.65;7.32;;;;;;;28.10;47.53;98341.16;5050953;28;20043;-67
2022/07/25 09:13:04;;;;;;;9.15;6.90;;;;;;;28.05;47.85;98327.88;5050383;28;20132;-68
2022/07/25 09:15:38;;;;;;;8.32;6.45;;;;;;;28.18;47.66;98333.78;5052618;28;20049;-68
2022/07/25 09:18:06;;;;;;;9.20;7.18;;;;;;;28.47;46.00;98335.56;5051997;28;20506;-67
2022/07/25 09:20:40;;;;;;;12.50;7.93;;;;;;;28.61;45.33;98337.53;5034493;28;20450;-65
2022/07/25 09:23:07;;;;;;;13.43;8.68;;;;;;;28.61;45.13;98340.25;5051618;28;20049;-68
2022/07/25 09:25:33;;;;;;;13.45;9.18;;;;;;;28.77;44.63;98334.50;5051686;28;20044;-68
2022/07/25 09:28:09;;;;;;;8.73;7.82;;;;;;;28.69;44.24;98332.91;5052257;28;20498;-68
2022/07/25 09:30:34;;;;;;;7.78;6.97;;;;;;;28.51;45.24;98333.59;5050848;28;20097;-66
2022/07/25 09:33:00;;;;;;;8.48;6.35;;;;;;;28.27;45.96;98328.78;5050405;28;20044;-68
2022/07/25 09:35:37;;;;;;;7.72;6.80;;;;;;;28.15;46.30;98326.38;5051869;28;20041;-67
2022/07/25 09:38:10;;;;;;;10.05;7.00;;;;;;;27.88;46.48;98326.59;5050673;28;20076;-68
2022/07/25 09:40:36;;;;;;;7.60;6.80;;;;;;;27.55;47.33;98328.25;5052577;28;20048;-67
2022/07/25 09:43:02;;;;;;;11.13;7.03;;;;;;;27.44;47.28;98326.59;5052244;28;20045;-68
2022/07/25 09:45:28;;;;;;;7.68;6.57;;;;;;;27.53;46.63;98330.59;5051282;28;20117;-71
2022/07/25 09:47:56;;;;;;;6.50;5.90;;;;;;;27.68;46.44;98336.13;5049943;28;20421;-67
2022/07/25 09:50:24;;;;;;;7.50;5.65;;;;;;;27.80;45.30;98331.22;5045092;28;20053;-67
2022/07/25 09:52:51;;;;;;;6.60;5.90;;;;;;;27.80;45.51;98331.22;5030147;28;20050;-67
2022/07/25 09:55:18;;;;;;;7.30;5.70;;;;;;;27.76;45.33;98335.03;5045373;28;20052;-68
2022/07/25 09:57:45;;;;;;;6.75;6.00;;;;;;;27.62;46.06;98330.28;5029649;28;20053;-68
2022/07/25 10:00:12;;;;;;;7.13;5.15;;;;;;;27.52;46.34;98333.69;5047560;28;20379;-68
2022/07/25 10:02:53;;;;;;;6.15;5.60;;;;;;;27.43;46.41;98327.78;5050705;28;20037;-67
2022/07/25 10:05:46;;;;;;;7.18;5.72;;;;;;;27.34;47.11;98331.56;5050820;28;20167;-67
2022/07/25 10:08:12;;;;;;;6.85;6.15;;;;;;;27.47;47.53;98329.34;5051470;28;20049;-68
2022/07/25 10:10:40;;;;;;;11.38;6.60;;;;;;;27.63;46.33;98334.56;5051365;28;20414;-66
2022/07/25 10:13:20;;;;;;;7.43;5.43;;;;;;;27.50;47.22;98325.09;5051451;28;20048;-67
2022/07/25 10:15:51;;;;;;;6.15;5.57;;;;;;;27.37;46.09;98328.09;5050573;28;20037;-67
2022/07/25 10:18:19;;;;;;;8.40;5.57;;;;;;;27.30;46.26;98316.38;5050713;28;20041;-66
2022/07/25 10:20:46;;;;;;;6.63;6.00;;;;;;;27.24;46.15;98321.38;5051925;28;20171;-67
2022/07/25 10:23:27;;;;;;;6.63;5.77;;;;;;;27.36;46.67;98321.09;5051437;28;20055;-67
2022/07/25 10:26:15;;;;;;;7.05;5.55;;;;;;;27.26;47.44;98321.00;5048733;28;20047;-64
2022/07/25 10:28:52;;;;;;;6.75;5.32;;;;;;;27.21;46.63;98321.34;5047632;28;20520;-66
2022/07/25 10:31:32;;;;;;;18.05;6.53;;;;;;;27.19;46.64;98324.44;5050306;28;20051;-64
2022/07/25 10:34:01;;;;;;;8.52;5.60;;;;;;;27.37;46.21;98321.88;5028938;28;20044;-64
2022/07/25 10:36:41;;;;;;;6.63;5.82;;;;;;;27.40;45.98;98318.41;5029769;28;20046;-64
2022/07/25 10:39:09;;;;;;;9.63;6.00;;;;;;;27.34;45.86;98315.25;5034857;28;20383;-67
2022/07/25 10:41:39;;;;;;;6.05;5.55;;;;;;;27.39;45.86;98314.91;5048571;28;20053;-66
2022/07/25 10:44:11;;;;;;;7.97;5.93;;;;;;;27.61;45.57;98315.09;5049408;28;20049;-66
2022/07/25 10:46:37;;;;;;;6.40;5.72;;;;;;;27.85;44.64;98314.53;5064427;28;20128;-67
2022/07/25 10:49:05;;;;;;;9.98;6.30;;;;;;;27.99;44.26;98322.00;5049616;28;20074;-67
2022/07/25 10:51:35;;;;;;;6.80;6.20;;;;;;;27.95;45.17;98304.09;5047322;28;20041;-67
2022/07/25 10:54:14;;;;;;;8.07;6.10;;;;;;;27.79;45.43;98320.69;5043596;28;20053;-66
2022/07/25 10:56:51;;;;;;;7.68;6.93;;;;;;;27.75;46.00;98319.88;5048463;28;20128;-67
2022/07/25 10:59:34;;;;;;;10.60;9.05;;;;;;;27.85;44.65;98313.72;5048669;28;20094;-67
2022/07/25 11:02:07;;;;;;;14.90;7.20;;;;;;;27.83;44.86;98300.50;5015709;28;20048;-67
2022/07/25 11:04:33;;;;;;;9.40;7.67;;;;;;;27.93;44.22;98301.72;5048476;28;20051;-67
2022/07/25 11:07:08;;;;;;;9.98;7.57;;;;;;;27.89;44.37;98306.38;5049524;28;20508;-68
2022/07/25 11:09:34;;;;;;;7.20;6.10;;;;;;;27.80;44.85;98311.38;5065614;28;20072;-67
2022/07/25 11:12:00;;;;;;;6.07;5.47;;;;;;;27.63;45.38;98304.59;5048084;28;20068;-67
2022/07/25 11:14:39;;;;;;;7.25;5.22;;;;;;;27.36;45.38;98298.56;5048175;28;20028;-68
2022/07/25 11:17:18;;;;;;;9.32;5.47;;;;;;;27.22;45.43;98303.88;5048173;28;20037;-72
2022/07/25 11:19:56;;;;;;;8.35;5.43;;;;;;;27.01;45.97;98307.91;5064451;28;20045;-71
2022/07/25 11:22:22;;;;;;;7.55;5.00;;;;;;;26.94;46.07;98300.47;5066149;28;20119;-70
2022/07/25 11:24:48;;;;;;;5.72;5.22;;;;;;;26.82;46.34;98298.00;5032493;28;20047;-71
2022/07/25 11:27:34;;;;;;;6.38;5.78;;;;;;;26.91;49.18;98295.78;5048790;28;20488;-72
2022/07/25 11:30:13;;;;;;;10.75;6.28;;;;;;;27.17;49.24;98289.44;5029598;28;20053;-72
2022/07/25 11:32:46;;;;;;;7.75;6.20;;;;;;;27.44;48.92;98292.00;5040551;28;20048;-71
2022/07/25 11:35:13;;;;;;;6.60;5.88;;;;;;;27.50;46.73;98289.72;5028799;28;20128;-71